createdAt,value
2018-10-12T00:01:25.925Z,71.30
2018-10-12T00:03:55.942Z,71.50
2018-10-12T00:06:25.863Z,71.90
2018-10-12T00:08:55.860Z,72.20
2018-10-12T00:11:25.786Z,72.70
2018-10-12T00:13:55.620Z,72.90
2018-10-12T00:16:25.730Z,72.90
2018-10-12T00:18:55.643Z,73.10
2018-10-12T00:21:25.598Z,73.10
2018-10-12T00:23:56.027Z,72.90
2018-10-12T00:26:26.542Z,72.80
2018-10-12T00:28:56.532Z,72.60
2018-10-12T00:31:26.542Z,72.50
2018-10-12T00:33:56.446Z,72.30
2018-10-12T00:36:26.430Z,72.80
2018-10-12T00:38:56.550Z,72.10
2018-10-12T00:41:26.438Z,71.60
2018-10-12T00:43:56.414Z,71.40
2018-10-12T00:46:26.358Z,72.00
2018-10-12T00:48:56.432Z,71.10
2018-10-12T00:51:26.352Z,71.10
2018-10-12T00:53:56.279Z,71.20
2018-10-12T00:56:26.297Z,71.00
2018-10-12T00:58:56.556Z,70.60
2018-10-12T01:01:26.444Z,70.40
2018-10-12T01:03:56.476Z,70.20
2018-10-12T01:06:26.447Z,70.20
2018-10-12T01:08:56.398Z,70.80
2018-10-12T01:11:26.402Z,70.20
2018-10-12T01:13:56.344Z,70.00
2018-10-12T01:16:26.370Z,69.70
2018-10-12T01:18:56.292Z,70.20
2018-10-12T01:21:26.439Z,70.40
2018-10-12T01:23:56.392Z,70.80
2018-10-12T01:26:26.695Z,71.00
2018-10-12T01:28:57.834Z,71.40
2018-10-12T01:31:28.655Z,71.50
2018-10-12T01:33:58.669Z,71.20
2018-10-12T01:36:28.845Z,71.10
2018-10-12T01:38:58.849Z,71.30
2018-10-12T01:41:28.735Z,71.60
2018-10-12T01:59:19.035Z,69.30
2018-10-12T02:01:49.206Z,69.40
2018-10-12T02:04:19.205Z,69.10
2018-10-12T02:06:49.275Z,69.20
2018-10-12T02:09:19.175Z,69.30
2018-10-12T02:11:49.296Z,69.60
2018-10-12T02:14:19.288Z,69.90
2018-10-12T02:16:49.229Z,69.70
2018-10-12T02:19:19.116Z,69.60
2018-10-12T02:21:49.061Z,69.60
2018-10-12T02:24:19.077Z,69.40
2018-10-12T02:26:49.443Z,70.20
2018-10-12T02:29:19.431Z,69.50
2018-10-12T02:31:49.551Z,69.50
2018-10-12T02:34:19.487Z,69.50
2018-10-12T02:36:49.463Z,69.50
2018-10-12T02:39:19.466Z,69.40
2018-10-12T02:41:49.378Z,69.40
2018-10-12T02:44:19.289Z,69.50
2018-10-12T02:46:49.363Z,69.50
2018-10-12T02:49:19.448Z,69.70
2018-10-12T02:51:49.468Z,69.90
2018-10-12T02:54:19.485Z,70.00
2018-10-12T02:56:49.533Z,69.50
2018-10-12T02:59:19.549Z,68.60
2018-10-12T03:01:49.516Z,68.10
2018-10-12T03:04:19.486Z,67.60
2018-10-12T03:06:49.489Z,67.40
2018-10-12T03:09:19.506Z,67.00
2018-10-12T03:11:49.425Z,67.40
2018-10-12T03:14:19.368Z,67.00
2018-10-12T03:16:49.359Z,67.30
2018-10-12T03:19:19.476Z,67.70
2018-10-12T03:21:49.422Z,68.20
2018-10-12T03:24:19.408Z,68.40
2018-10-12T03:26:49.272Z,68.60
2018-10-12T03:29:19.204Z,68.90
2018-10-12T03:31:49.303Z,68.90
2018-10-12T03:34:19.547Z,68.90
2018-10-12T03:36:49.568Z,69.30
2018-10-12T03:39:19.831Z,69.40
2018-10-12T03:41:49.942Z,69.70
2018-10-12T03:44:20.018Z,69.90
2018-10-12T03:46:50.062Z,70.60
2018-10-12T03:49:20.032Z,71.10
2018-10-12T03:51:50.115Z,71.30
2018-10-12T03:54:19.999Z,71.70
2018-10-12T03:56:49.906Z,71.80
2018-10-12T03:59:19.801Z,71.90
2018-10-12T04:01:49.892Z,72.40
2018-10-12T04:04:19.808Z,72.60
2018-10-12T04:06:49.762Z,72.20
2018-10-12T04:09:19.778Z,72.50
2018-10-12T04:11:49.789Z,72.50
2018-10-12T04:14:19.665Z,72.70
2018-10-12T04:16:49.616Z,73.10
2018-10-12T04:19:19.536Z,73.40
2018-10-12T04:21:49.566Z,73.60
2018-10-12T04:24:19.564Z,73.70
2018-10-12T04:26:49.510Z,73.90
2018-10-12T04:29:19.434Z,74.10
2018-10-12T04:31:49.316Z,74.20
2018-10-12T04:34:19.258Z,74.70
2018-10-12T04:36:49.192Z,74.60
2018-10-12T04:39:39.143Z,74.50
2018-10-12T04:42:09.249Z,74.40
2018-10-12T04:44:39.196Z,74.50
2018-10-12T04:47:09.209Z,74.60
2018-10-12T04:49:39.291Z,75.10
2018-10-12T04:52:09.306Z,76.20
2018-10-12T04:54:39.204Z,75.40
2018-10-12T04:57:09.151Z,75.40
2018-10-12T04:59:39.101Z,75.40
2018-10-12T05:02:09.100Z,75.70
2018-10-12T05:04:39.024Z,75.90
2018-10-12T05:07:09.043Z,75.90
2018-10-12T05:09:39.056Z,76.30
2018-10-12T05:12:09.510Z,76.40
2018-10-12T05:14:39.532Z,77.60
2018-10-12T05:17:09.511Z,77.80
2018-10-12T05:19:39.574Z,77.00
2018-10-12T05:22:09.535Z,77.40
2018-10-12T05:24:39.477Z,77.60
2018-10-12T05:27:09.483Z,77.90
2018-10-12T05:29:39.436Z,78.30
2018-10-12T05:32:09.412Z,78.50
2018-10-12T05:34:39.515Z,78.70
2018-10-12T05:37:09.444Z,78.60
2018-10-12T05:39:39.354Z,78.90
2018-10-12T05:42:10.134Z,79.20
2018-10-12T05:44:40.192Z,79.10
2018-10-12T05:47:10.075Z,80.00
2018-10-12T05:49:59.914Z,79.30
2018-10-12T05:52:30.623Z,79.30
2018-10-12T05:55:01.705Z,79.20
2018-10-12T05:57:34.537Z,79.00
2018-10-12T06:00:04.936Z,78.80
2018-10-12T06:02:34.863Z,78.70
2018-10-12T06:05:05.325Z,78.50
2018-10-12T06:07:35.724Z,78.40
2018-10-12T06:10:05.840Z,78.40
2018-10-12T06:12:35.735Z,78.10
2018-10-12T06:15:06.107Z,78.10
2018-10-12T06:17:36.140Z,78.10
2018-10-12T06:20:06.219Z,78.80
2018-10-12T06:22:36.341Z,78.30
2018-10-12T06:25:06.742Z,79.20
2018-10-12T06:27:37.097Z,78.50
2018-10-12T06:30:07.663Z,78.50
2018-10-12T06:32:40.965Z,78.40
2018-10-12T06:35:11.070Z,78.60
2018-10-12T06:37:40.944Z,78.70
2018-10-12T06:40:11.104Z,78.70
2018-10-12T06:42:41.124Z,78.90
2018-10-12T06:45:11.148Z,78.90
2018-10-12T06:47:41.244Z,79.10
2018-10-12T06:50:11.155Z,78.80
2018-10-12T06:52:41.089Z,78.70
2018-10-12T06:55:11.063Z,78.70
2018-10-12T06:57:41.081Z,78.70
2018-10-12T07:00:11.057Z,78.60
2018-10-12T07:02:41.116Z,78.40
2018-10-12T07:05:11.337Z,78.60
2018-10-12T07:07:41.314Z,78.50
2018-10-12T07:10:11.237Z,78.50
2018-10-12T07:12:41.197Z,78.40
2018-10-12T07:15:11.167Z,78.40
2018-10-12T07:17:41.168Z,78.60
2018-10-12T07:20:11.191Z,78.80
2018-10-12T07:22:41.101Z,78.80
2018-10-12T07:25:11.100Z,78.70
2018-10-12T07:27:41.118Z,78.60
2018-10-12T07:30:11.137Z,78.60
2018-10-12T07:32:41.155Z,78.70
2018-10-12T07:35:11.183Z,78.70
2018-10-12T07:37:41.184Z,78.60
2018-10-12T07:40:11.190Z,78.20
2018-10-12T07:42:41.792Z,78.00
2018-10-12T07:45:11.911Z,77.70
2018-10-12T07:47:42.031Z,77.50
2018-10-12T07:50:11.955Z,77.30
2018-10-12T07:52:42.066Z,77.30
2018-10-12T07:55:12.172Z,77.20
2018-10-12T07:57:42.257Z,77.10
2018-10-12T08:00:12.399Z,76.70
2018-10-12T08:02:42.341Z,76.20
2018-10-12T08:05:12.200Z,76.00
2018-10-12T08:07:42.206Z,75.70
2018-10-12T08:10:12.228Z,75.70
2018-10-12T08:12:42.317Z,75.20
2018-10-12T08:15:12.302Z,74.80
2018-10-12T08:17:42.274Z,74.40
2018-10-12T08:20:13.477Z,74.00
2018-10-12T08:22:43.508Z,73.60
2018-10-12T08:25:13.744Z,73.10
2018-10-12T08:27:43.685Z,72.40
2018-10-12T08:30:13.872Z,72.00
2018-10-12T08:32:43.872Z,71.80
2018-10-12T08:35:14.162Z,71.20
2018-10-12T08:37:44.144Z,71.10
2018-10-12T08:40:14.032Z,70.80
2018-10-12T08:42:44.066Z,70.60
2018-10-12T08:45:13.948Z,70.30
2018-10-12T08:47:43.860Z,70.20
2018-10-12T08:50:13.854Z,70.00
2018-10-12T08:52:43.906Z,70.00
2018-10-12T08:55:13.888Z,69.90
2018-10-12T08:57:44.102Z,69.80
2018-10-12T09:00:14.660Z,69.70
2018-10-12T09:02:44.668Z,69.70
2018-10-12T09:05:14.702Z,69.50
2018-10-12T09:07:44.730Z,69.50
2018-10-12T09:10:14.722Z,69.50
2018-10-12T09:12:44.689Z,69.80
2018-10-12T09:15:14.720Z,69.50
2018-10-12T09:17:44.710Z,69.20
2018-10-12T09:20:14.757Z,69.30
2018-10-12T09:22:44.670Z,69.50
2018-10-12T09:25:14.518Z,69.60
2018-10-12T09:27:44.468Z,69.50
2018-10-12T09:30:14.532Z,69.20
2018-10-12T09:32:44.498Z,69.30
2018-10-12T09:35:14.442Z,69.30
2018-10-12T09:37:44.565Z,69.30
2018-10-12T09:40:14.465Z,69.10
2018-10-12T09:42:44.525Z,69.00
2018-10-12T09:45:14.482Z,68.90
2018-10-12T09:47:44.426Z,69.10
2018-10-12T09:50:14.500Z,68.90
2018-10-12T09:52:44.426Z,68.80
2018-10-12T09:55:14.371Z,69.00
2018-10-12T09:57:44.301Z,68.60
2018-10-12T10:00:19.349Z,68.60
2018-10-12T10:02:54.657Z,68.40
2018-10-12T10:05:24.734Z,68.20
2018-10-12T10:07:54.982Z,68.50
2018-10-12T10:10:24.768Z,68.10
2018-10-12T10:12:54.825Z,68.20
2018-10-12T10:15:24.954Z,68.00
2018-10-12T10:17:55.246Z,68.30
2018-10-12T10:20:25.176Z,69.00
2018-10-12T10:22:55.151Z,68.50
2018-10-12T10:25:25.044Z,68.20
2018-10-12T10:27:55.146Z,68.30
2018-10-12T10:30:25.049Z,68.20
2018-10-12T10:32:55.067Z,68.10
2018-10-12T10:35:25.099Z,68.40
2018-10-12T10:37:55.037Z,68.00
2018-10-12T10:40:25.249Z,67.80
2018-10-12T10:42:55.191Z,67.50
2018-10-12T10:45:25.122Z,67.00
2018-10-12T10:47:55.054Z,66.70
2018-10-12T10:50:25.021Z,66.60
2018-10-12T10:52:54.988Z,66.50
2018-10-12T10:55:25.050Z,65.70
2018-10-12T10:57:54.987Z,65.60
2018-10-12T11:00:25.197Z,65.50
2018-10-12T11:02:55.452Z,65.50
2018-10-12T11:05:25.345Z,64.60
2018-10-12T11:07:55.364Z,64.80
2018-10-12T11:10:25.338Z,63.70
2018-10-12T11:12:55.396Z,63.60
2018-10-12T11:15:25.337Z,63.60
2018-10-12T11:17:55.353Z,63.40
2018-10-12T11:20:25.369Z,63.60
2018-10-12T11:22:55.464Z,63.10
2018-10-12T11:25:25.347Z,63.40
2018-10-12T11:27:55.354Z,63.00
2018-10-12T11:30:25.359Z,62.30
2018-10-12T11:32:55.369Z,63.00
2018-10-12T11:35:25.325Z,62.00
2018-10-12T11:37:55.224Z,61.30
2018-10-12T11:40:25.257Z,60.80
2018-10-12T11:43:12.367Z,60.20
2018-10-12T11:45:42.735Z,60.00
2018-10-12T11:48:12.751Z,60.00
2018-10-12T11:50:42.705Z,60.40
2018-10-12T11:53:12.616Z,59.50
2018-10-12T11:55:42.702Z,59.20
2018-10-12T11:58:12.657Z,59.00
2018-10-12T12:00:42.761Z,58.80
2018-10-12T12:03:12.897Z,58.60
2018-10-12T12:05:42.869Z,58.10
2018-10-12T12:08:12.769Z,57.70
2018-10-12T12:10:42.961Z,57.50
2018-10-12T12:13:12.978Z,57.50
2018-10-12T12:15:42.913Z,57.00
2018-10-12T12:18:12.921Z,56.60
2018-10-12T12:20:43.056Z,56.50
2018-10-12T12:23:12.949Z,56.60
2018-10-12T12:25:43.073Z,56.70
2018-10-12T12:28:13.049Z,56.60
2018-10-12T12:30:42.994Z,56.00
2018-10-12T12:33:13.084Z,55.50
2018-10-12T12:35:43.341Z,55.60
2018-10-12T12:38:13.015Z,55.10
2018-10-12T12:40:43.080Z,54.80
2018-10-12T12:43:13.058Z,54.90
2018-10-12T12:45:43.014Z,54.30
2018-10-12T12:48:13.159Z,54.30
2018-10-12T12:50:42.900Z,54.20
2018-10-12T12:53:12.888Z,54.60
2018-10-12T12:55:43.814Z,54.60
2018-10-12T12:58:13.824Z,54.40
2018-10-12T13:00:43.902Z,54.20
2018-10-12T13:03:13.885Z,54.30
2018-10-12T13:05:43.998Z,54.00
2018-10-12T13:08:14.016Z,53.80
2018-10-12T13:10:43.986Z,54.60
2018-10-12T13:13:14.078Z,54.00
2018-10-12T13:15:44.004Z,54.10
2018-10-12T13:18:14.016Z,54.00
2018-10-12T13:20:43.940Z,53.90
2018-10-12T13:23:13.932Z,53.80
2018-10-12T13:25:44.041Z,53.90
2018-10-12T13:28:13.996Z,53.70
2018-10-12T13:30:44.013Z,54.00
2018-10-12T13:33:13.967Z,53.80
2018-10-12T13:35:43.880Z,53.60
2018-10-12T13:38:13.976Z,53.50
2018-10-12T13:40:44.123Z,53.30
2018-10-12T13:43:14.159Z,53.40
2018-10-12T13:45:44.070Z,53.50
2018-10-12T13:48:14.042Z,53.70
2018-10-12T13:50:43.993Z,54.10
2018-10-12T13:53:14.097Z,54.20
2018-10-12T13:55:44.041Z,53.90
2018-10-12T13:58:14.224Z,53.80
2018-10-12T14:00:44.385Z,53.80
2018-10-12T14:03:14.357Z,53.60
2018-10-12T14:05:44.330Z,53.60
2018-10-12T14:08:14.856Z,53.90
2018-10-12T14:10:44.886Z,53.90
2018-10-12T14:13:14.741Z,54.10
2018-10-12T14:15:44.668Z,54.60
2018-10-12T14:18:14.829Z,54.80
2018-10-12T14:20:45.665Z,55.10
2018-10-12T14:23:15.758Z,55.00
2018-10-12T14:25:45.862Z,54.80
2018-10-12T14:28:15.866Z,54.70
2018-10-12T14:30:45.990Z,54.80
2018-10-12T14:33:16.204Z,54.60
2018-10-12T14:35:46.191Z,55.00
2018-10-12T14:38:16.151Z,55.00
2018-10-12T14:40:46.332Z,55.00
2018-10-12T14:43:16.463Z,54.90
2018-10-12T14:45:46.380Z,54.70
2018-10-12T14:48:16.427Z,54.60
2018-10-12T14:50:46.451Z,55.90
2018-10-12T14:53:16.538Z,55.40
2018-10-12T14:55:46.501Z,55.20
2018-10-12T14:58:16.614Z,55.40
2018-10-12T15:00:46.685Z,55.70
2018-10-12T15:03:16.655Z,55.20
2018-10-12T15:05:46.663Z,55.90
2018-10-12T15:08:16.678Z,55.10
2018-10-12T15:10:46.610Z,55.50
2018-10-12T15:13:16.584Z,55.20
2018-10-12T15:15:46.625Z,55.70
2018-10-12T15:18:16.669Z,56.10
2018-10-12T15:20:46.684Z,56.30
2018-10-12T15:23:16.629Z,56.50
2018-10-12T15:25:46.750Z,56.80
2018-10-12T15:28:16.767Z,56.70
2018-10-12T15:30:46.808Z,56.70
2018-10-12T15:33:16.828Z,56.80
2018-10-12T15:35:47.067Z,56.90
2018-10-12T15:38:16.998Z,57.00
2018-10-12T15:40:47.141Z,57.80
2018-10-12T15:43:17.217Z,57.20
2018-10-12T15:45:47.082Z,57.20
2018-10-12T15:48:17.795Z,57.60
2018-10-12T15:50:47.825Z,57.70
2018-10-12T15:53:17.885Z,57.80
2018-10-12T15:55:47.813Z,58.20
2018-10-12T15:58:17.908Z,58.20
2018-10-12T16:00:47.830Z,58.30
2018-10-12T16:03:17.769Z,58.30
2018-10-12T16:05:47.975Z,58.40
2018-10-12T16:08:17.910Z,58.40
2018-10-12T16:10:48.015Z,58.60
2018-10-12T16:13:18.433Z,58.80
2018-10-12T16:15:48.319Z,58.90
2018-10-12T16:18:18.397Z,59.10
2018-10-12T16:20:48.333Z,59.40
2018-10-12T16:23:18.397Z,59.60
2018-10-12T16:26:06.666Z,59.90
2018-10-12T16:28:36.752Z,60.30
2018-10-12T16:31:07.382Z,60.90
2018-10-12T16:33:37.817Z,61.20
2018-10-12T16:36:07.876Z,61.60
2018-10-12T16:38:37.879Z,62.00
2018-10-12T16:41:07.858Z,62.40
2018-10-12T16:43:40.502Z,62.90
2018-10-12T16:46:10.551Z,63.30
2018-10-12T16:48:40.966Z,63.90
2018-10-12T16:51:11.238Z,64.10
2018-10-12T16:53:41.639Z,64.50
2018-10-12T16:56:11.643Z,64.80
2018-10-12T16:58:46.271Z,65.30
2018-10-12T17:01:16.395Z,65.60
2018-10-12T17:03:46.472Z,66.00
2018-10-12T17:06:16.695Z,66.30
2018-10-12T17:08:49.480Z,66.60
2018-10-12T17:11:19.485Z,67.10
2018-10-12T17:13:49.551Z,67.50
2018-10-12T17:16:19.530Z,67.80
2018-10-12T17:18:49.599Z,68.40
2018-10-12T17:21:19.660Z,68.70
2018-10-12T17:23:49.619Z,69.10
2018-10-12T17:26:19.643Z,69.30
2018-10-12T17:28:49.808Z,69.70
2018-10-12T17:31:19.823Z,70.80
2018-10-12T17:33:49.913Z,70.50
2018-10-12T17:36:20.008Z,70.90
2018-10-12T17:38:50.374Z,71.90
2018-10-12T17:41:21.418Z,71.60
2018-10-12T17:43:51.690Z,72.00
2018-10-12T17:46:21.942Z,72.10
2018-10-12T17:48:51.934Z,72.50
2018-10-12T17:51:21.923Z,72.80
2018-10-12T17:53:51.936Z,73.10
2018-10-12T17:56:21.968Z,73.20
2018-10-12T17:58:51.882Z,73.50
2018-10-12T18:01:21.904Z,73.70
2018-10-12T18:03:51.916Z,73.90
2018-10-12T18:06:22.089Z,74.20
2018-10-12T18:08:52.121Z,74.50
2018-10-12T18:11:22.139Z,74.60
2018-10-12T18:13:52.249Z,74.90
2018-10-12T18:16:22.402Z,75.20
2018-10-12T18:18:52.503Z,75.40
2018-10-12T18:21:22.432Z,75.70
2018-10-12T18:23:52.440Z,76.00
2018-10-12T18:26:22.411Z,76.40
2018-10-12T18:28:52.352Z,76.60
2018-10-12T18:31:22.387Z,76.80
2018-10-12T18:33:52.405Z,77.10
2018-10-12T18:36:22.593Z,77.40
2018-10-12T18:38:52.732Z,77.70
2018-10-12T18:41:22.795Z,77.90
2018-10-12T18:43:52.855Z,78.10
2018-10-12T18:46:22.876Z,78.10
2018-10-12T18:48:52.790Z,78.30
2018-10-12T18:51:22.662Z,78.20
2018-10-12T18:53:52.601Z,78.90
2018-10-12T18:56:22.546Z,78.20
2018-10-12T18:58:52.532Z,78.30
2018-10-12T19:01:22.535Z,78.30
2018-10-12T19:03:52.481Z,78.30
2018-10-12T19:06:22.553Z,78.20
2018-10-12T19:08:52.459Z,78.10
2018-10-12T19:11:22.364Z,78.20
2018-10-12T19:13:52.283Z,78.30
2018-10-12T19:16:22.335Z,78.20
2018-10-12T19:18:52.374Z,78.40
2018-10-12T19:21:22.362Z,78.50
2018-10-12T19:23:52.476Z,78.70
2018-10-12T19:26:22.386Z,78.70
2018-10-12T19:28:52.475Z,78.90
2018-10-12T19:31:22.517Z,79.00
2018-10-12T19:33:52.398Z,79.80
2018-10-12T19:36:22.455Z,79.20
2018-10-12T19:38:53.872Z,79.30
2018-10-12T19:41:23.861Z,79.30
2018-10-12T19:43:53.906Z,79.30
2018-10-12T19:46:23.856Z,79.30
2018-10-12T19:48:53.857Z,79.30
2018-10-12T19:51:23.863Z,79.40
2018-10-12T19:53:53.819Z,79.40
2018-10-12T19:56:23.855Z,79.50
2018-10-12T19:58:53.817Z,79.50
2018-10-12T20:01:23.745Z,79.60
2018-10-12T20:03:53.808Z,79.60
2018-10-12T20:06:26.901Z,79.50
2018-10-12T20:08:56.889Z,79.50
2018-10-12T20:11:26.888Z,79.70
2018-10-12T20:13:56.947Z,79.70
2018-10-12T20:16:26.905Z,79.70
2018-10-12T20:18:57.617Z,80.00
2018-10-12T20:21:28.454Z,79.90
2018-10-12T20:23:59.665Z,80.60
2018-10-12T20:26:29.730Z,80.10
2018-10-12T20:28:59.700Z,80.20
2018-10-12T20:31:30.172Z,80.40
2018-10-12T20:34:00.105Z,80.40
2018-10-12T20:36:30.123Z,80.80
2018-10-12T20:39:00.282Z,81.00
2018-10-12T20:41:30.197Z,81.20
2018-10-12T20:44:00.171Z,81.10
2018-10-12T20:46:30.238Z,81.10
2018-10-12T20:49:00.222Z,81.10
2018-10-12T20:51:30.344Z,81.00
2018-10-12T20:54:00.409Z,81.00
2018-10-12T20:56:30.583Z,81.10
2018-10-12T20:59:00.603Z,81.10
2018-10-12T21:01:30.662Z,81.10
2018-10-12T21:04:00.637Z,81.30
2018-10-12T21:06:30.888Z,81.40
2018-10-12T21:09:00.814Z,81.50
2018-10-12T21:11:30.751Z,81.70
2018-10-12T21:14:00.959Z,81.80
2018-10-12T21:16:30.885Z,81.90
2018-10-12T21:19:01.197Z,81.70
2018-10-12T21:21:31.076Z,81.00
2018-10-12T21:24:01.066Z,81.00
2018-10-12T21:26:31.065Z,81.30
2018-10-12T21:29:01.066Z,81.40
2018-10-12T21:31:31.142Z,81.70
2018-10-12T21:34:01.094Z,81.80
2018-10-12T21:36:31.078Z,82.00
2018-10-12T21:39:00.975Z,82.00
2018-10-12T21:41:30.902Z,82.10
2018-10-12T21:44:00.917Z,82.30
2018-10-12T21:46:30.816Z,82.40
2018-10-12T21:49:00.728Z,81.90
2018-10-12T21:51:30.677Z,82.60
2018-10-12T21:54:00.650Z,82.70
2018-10-12T21:56:30.570Z,82.40
2018-10-12T21:59:00.527Z,82.40
2018-10-12T22:01:30.426Z,82.70
2018-10-12T22:04:00.393Z,82.70
2018-10-12T22:06:30.313Z,82.70
2018-10-12T22:09:06.152Z,82.80
2018-10-12T22:11:36.053Z,83.10
2018-10-12T22:14:06.089Z,84.00
2018-10-12T22:16:36.016Z,83.80
2018-10-12T22:19:06.092Z,84.10
2018-10-12T22:21:36.154Z,84.40
2018-10-12T22:24:06.292Z,84.80
2018-10-12T22:26:36.357Z,85.20
2018-10-12T22:29:06.464Z,85.60
2018-10-12T22:31:36.457Z,85.90
2018-10-12T22:34:06.777Z,86.10
2018-10-12T22:36:36.751Z,86.50
2018-10-12T22:39:08.969Z,86.90
2018-10-12T22:41:38.922Z,87.10
2018-10-12T22:44:09.037Z,87.40
2018-10-12T22:46:38.978Z,87.30
2018-10-12T22:49:08.993Z,87.60
2018-10-12T22:51:38.912Z,87.70
2018-10-12T22:54:08.962Z,87.90
2018-10-12T22:56:39.037Z,88.00
2018-10-12T22:59:09.289Z,88.00
2018-10-12T23:01:39.234Z,88.00
2018-10-12T23:04:09.257Z,88.10
2018-10-12T23:06:39.165Z,88.00
2018-10-12T23:09:10.715Z,88.00
2018-10-12T23:11:41.070Z,88.10
2018-10-12T23:14:11.235Z,88.90
2018-10-12T23:16:41.201Z,88.20
2018-10-12T23:19:11.189Z,88.30
2018-10-12T23:21:41.205Z,88.30
2018-10-12T23:24:11.192Z,88.00
2018-10-12T23:26:41.071Z,87.90
2018-10-12T23:29:11.090Z,87.90
2018-10-12T23:31:41.012Z,87.80
2018-10-12T23:34:11.084Z,88.10
2018-10-12T23:36:41.185Z,87.70
2018-10-12T23:39:11.125Z,87.60
2018-10-12T23:41:41.110Z,87.70
2018-10-12T23:44:10.966Z,87.60
2018-10-12T23:46:40.873Z,88.00
2018-10-12T23:49:10.789Z,87.70
2018-10-12T23:51:40.753Z,87.70
2018-10-12T23:54:10.707Z,87.90
2018-10-12T23:56:40.837Z,88.00
2018-10-12T23:59:10.783Z,88.10
